Terminal Aerodrome Forecast
Issued by NWS

Home | Current Version | Previous Version | Text Only | Print | Product List | Glossary On
Versions: 1 2 3 4 5 6 7 8 9 10 11 12 13 14 15
007
FTUS43 KGRR 270533
TAFJXN
TAF
KJXN 270533Z 2706/2806 22003KT P6SM SCT150
     FM270700 22003KT 5SM HZ BKN070
     FM272100 18008KT P6SM VCTS BKN050CB
     FM280400 18007KT P6SM BKN120=

USA.gov is the U.S. government's official web portal to all federal, state and local government web resources and services.